createdAt,value
2022-09-07T00:04:41.247Z,28.50
2022-09-07T00:09:41.288Z,26.80
2022-09-07T00:14:41.089Z,29.20
2022-09-07T00:19:41.027Z,28.20
2022-09-07T00:24:40.954Z,31.70
2022-09-07T00:29:40.888Z,33.00
2022-09-07T00:34:40.820Z,29.10
2022-09-07T00:39:40.784Z,27.00
2022-09-07T00:44:40.711Z,27.80
2022-09-07T00:49:40.631Z,25.10
2022-09-07T00:54:40.581Z,24.40
2022-09-07T00:59:40.502Z,22.00
2022-09-07T01:04:40.431Z,27.30
2022-09-07T01:09:40.352Z,25.30
2022-09-07T01:14:40.311Z,27.80
2022-09-07T01:19:40.221Z,29.70
2022-09-07T01:24:40.175Z,28.40
2022-09-07T01:29:40.110Z,25.80
2022-09-07T01:34:40.045Z,24.90
2022-09-07T01:39:40.029Z,25.20
2022-09-07T01:44:39.902Z,26.90
2022-09-07T01:49:39.823Z,23.70
2022-09-07T01:54:39.775Z,26.40
2022-09-07T01:59:39.695Z,24.40
2022-09-07T02:04:39.635Z,23.60
2022-09-07T02:09:39.555Z,23.80
2022-09-07T02:14:39.512Z,25.10
2022-09-07T02:19:39.604Z,25.10
2022-09-07T02:24:39.383Z,23.30
2022-09-07T02:29:39.306Z,22.70
2022-09-07T02:34:39.234Z,22.30
2022-09-07T02:39:39.204Z,22.90
2022-09-07T02:44:39.105Z,21.40
2022-09-07T02:49:39.077Z,21.60
2022-09-07T02:54:38.991Z,19.80
2022-09-07T02:59:38.918Z,20.30
2022-09-07T03:04:38.847Z,21.70
2022-09-07T03:09:38.786Z,23.80
2022-09-07T03:14:38.718Z,22.40
2022-09-07T03:19:38.669Z,22.70
2022-09-07T03:24:38.628Z,21.50
2022-09-07T03:29:41.839Z,24.30
2022-09-07T03:34:38.478Z,19.20
2022-09-07T03:39:38.459Z,22.40
2022-09-07T03:44:38.349Z,21.30
2022-09-07T03:49:38.294Z,23.70
2022-09-07T03:54:39.691Z,21.50
2022-09-07T03:59:38.139Z,23.80
2022-09-07T04:04:38.081Z,23.20
2022-09-07T04:09:38.007Z,19.80
2022-09-07T04:14:37.953Z,18.90
2022-09-07T04:19:37.863Z,18.70
2022-09-07T04:24:37.800Z,21.00
2022-09-07T04:29:37.751Z,22.40
2022-09-07T04:34:37.682Z,22.90
2022-09-07T04:39:37.687Z,21.40
2022-09-07T04:44:37.543Z,22.50
2022-09-07T04:49:37.502Z,20.10
2022-09-07T04:54:37.426Z,20.40
2022-09-07T04:59:37.381Z,19.80
2022-09-07T05:04:37.313Z,20.70
2022-09-07T05:09:37.212Z,16.90
2022-09-07T05:14:37.196Z,18.80
2022-09-07T05:19:37.174Z,18.40
2022-09-07T05:24:37.026Z,16.10
2022-09-07T05:34:38.078Z,16.70
2022-09-07T05:39:36.877Z,19.20
2022-09-07T05:44:44.726Z,17.60
2022-09-07T05:49:37.726Z,16.70
2022-09-07T05:54:36.637Z,19.20
2022-09-07T05:59:36.614Z,13.80
2022-09-07T06:04:36.509Z,12.90
2022-09-07T06:14:37.611Z,11.90
2022-09-07T06:19:36.309Z,9.60
2022-09-07T06:24:36.264Z,13.00
2022-09-07T06:29:36.193Z,11.00
2022-09-07T06:34:36.143Z,12.90
2022-09-07T06:39:36.087Z,11.40
2022-09-07T06:44:35.985Z,9.60
2022-09-07T06:49:35.908Z,10.50
2022-09-07T06:59:36.793Z,11.80
2022-09-07T07:04:40.549Z,11.30
2022-09-07T07:09:36.691Z,9.50
2022-09-07T07:14:37.378Z,11.00
2022-09-07T07:19:35.546Z,10.90
2022-09-07T07:24:35.474Z,10.10
2022-09-07T07:29:35.440Z,10.40
2022-09-07T07:34:35.432Z,11.30
2022-09-07T07:44:36.401Z,8.90
2022-09-07T07:49:35.162Z,10.20
2022-09-07T07:54:35.123Z,10.40
2022-09-07T07:59:35.084Z,10.40
2022-09-07T08:04:35.006Z,9.50
2022-09-07T08:09:34.925Z,11.30
2022-09-07T08:14:34.895Z,11.90
2022-09-07T08:19:34.808Z,9.50
2022-09-07T08:24:34.747Z,10.70
2022-09-07T08:29:35.566Z,11.10
2022-09-07T08:34:34.671Z,8.60
2022-09-07T08:39:34.597Z,8.70
2022-09-07T08:44:34.491Z,9.60
2022-09-07T08:49:34.454Z,9.50
2022-09-07T08:54:34.385Z,9.20
2022-09-07T08:59:34.316Z,9.80
2022-09-07T09:04:34.877Z,11.00
2022-09-07T09:09:35.185Z,10.90
2022-09-07T09:14:34.105Z,12.10
2022-09-07T09:19:34.041Z,10.10
2022-09-07T09:24:33.980Z,10.90
2022-09-07T09:29:33.903Z,10.50
2022-09-07T09:34:35.190Z,9.80
2022-09-07T09:39:33.851Z,9.60
2022-09-07T09:44:33.714Z,11.80
2022-09-07T09:49:33.659Z,9.80
2022-09-07T09:54:33.761Z,10.00
2022-09-07T10:04:34.469Z,10.20
2022-09-07T10:09:37.164Z,9.20
2022-09-07T10:14:33.353Z,9.60
2022-09-07T10:19:33.282Z,9.40
2022-09-07T10:24:33.221Z,10.40
2022-09-07T10:29:33.133Z,9.50
2022-09-07T10:34:33.072Z,11.70
2022-09-07T10:39:34.276Z,8.70
2022-09-07T10:44:32.956Z,9.20
2022-09-07T10:49:32.880Z,9.30
2022-09-07T10:54:33.098Z,8.70
2022-09-07T11:04:33.691Z,9.00
2022-09-07T11:09:32.631Z,10.20
2022-09-07T11:14:32.564Z,10.00
2022-09-07T11:19:36.427Z,9.20
2022-09-07T11:24:32.437Z,10.00
2022-09-07T11:29:32.427Z,10.00
2022-09-07T11:34:32.323Z,10.60
2022-09-07T11:39:32.291Z,9.70
2022-09-07T11:44:32.166Z,10.70
2022-09-07T11:49:32.098Z,9.10
2022-09-07T11:54:32.022Z,9.80
2022-09-07T11:59:36.635Z,9.10
2022-09-07T12:04:32.950Z,9.40
2022-09-07T12:09:31.839Z,10.50
2022-09-07T12:14:31.787Z,10.10
2022-09-07T12:19:31.712Z,10.10
2022-09-07T12:24:31.666Z,9.50
2022-09-07T12:29:31.596Z,12.40
2022-09-07T12:34:31.506Z,9.70
2022-09-07T12:39:31.490Z,11.30
2022-09-07T12:44:31.378Z,9.00
2022-09-07T12:49:31.317Z,8.80
2022-09-07T12:54:31.247Z,10.60
2022-09-07T12:59:31.180Z,11.50
2022-09-07T13:04:31.147Z,11.20
2022-09-07T13:09:31.222Z,10.00
2022-09-07T13:14:30.989Z,12.10
2022-09-07T13:19:30.913Z,11.40
2022-09-07T13:24:47.188Z,12.60
2022-09-07T13:29:31.786Z,13.90
2022-09-07T13:34:30.733Z,14.80
2022-09-07T13:39:30.668Z,14.00
2022-09-07T13:44:30.695Z,15.00
2022-09-07T13:49:30.530Z,14.90
2022-09-07T13:54:30.466Z,14.50
2022-09-07T13:59:30.400Z,14.00
2022-09-07T14:04:30.352Z,14.60
2022-09-07T14:09:30.272Z,14.00
2022-09-07T14:14:30.232Z,14.10
2022-09-07T14:19:30.186Z,12.30
2022-09-07T14:24:30.082Z,13.80
2022-09-07T14:29:30.051Z,13.50
2022-09-07T14:34:30.035Z,13.30
2022-09-07T14:39:29.971Z,12.40
2022-09-07T14:44:29.848Z,13.80
2022-09-07T14:49:29.759Z,12.60
2022-09-07T14:54:29.757Z,13.50
2022-09-07T14:59:29.640Z,14.30
2022-09-07T15:04:29.626Z,14.00
2022-09-07T15:09:29.513Z,13.70
2022-09-07T15:14:29.472Z,13.30
2022-09-07T15:19:29.422Z,14.10
2022-09-07T15:24:29.346Z,11.30
2022-09-07T15:29:30.097Z,11.50
2022-09-07T15:34:29.224Z,10.40
2022-09-07T15:39:29.183Z,8.20
2022-09-07T15:44:29.065Z,11.70
2022-09-07T15:49:29.011Z,9.30
2022-09-07T15:54:28.970Z,9.20
2022-09-07T15:59:28.882Z,10.30
2022-09-07T16:04:28.899Z,11.20
2022-09-07T16:09:28.784Z,8.30
2022-09-07T16:14:28.673Z,9.70
2022-09-07T16:19:28.834Z,8.90
2022-09-07T16:24:28.799Z,10.70
2022-09-07T16:29:28.495Z,12.50
2022-09-07T16:34:28.428Z,9.90
2022-09-07T16:39:28.461Z,12.20
2022-09-07T16:44:28.289Z,13.10
2022-09-07T16:49:28.229Z,13.00
2022-09-07T16:54:28.181Z,14.80
2022-09-07T16:59:28.132Z,13.00
2022-09-07T17:04:28.092Z,12.90
2022-09-07T17:09:27.978Z,16.00
2022-09-07T17:14:27.912Z,14.60
2022-09-07T17:19:29.337Z,15.60
2022-09-07T17:24:27.774Z,16.40
2022-09-07T17:29:27.916Z,14.20
2022-09-07T17:34:27.643Z,17.20
2022-09-07T17:39:27.602Z,16.70
2022-09-07T17:44:30.692Z,19.40
2022-09-07T17:49:28.446Z,16.40
2022-09-07T17:54:27.405Z,19.40
2022-09-07T18:04:28.524Z,17.50
2022-09-07T18:09:27.197Z,17.90
2022-09-07T18:14:27.159Z,16.70
2022-09-07T18:19:27.081Z,17.30
2022-09-07T18:24:26.991Z,17.90
2022-09-07T18:29:29.980Z,17.50
2022-09-07T18:34:28.091Z,18.80
2022-09-07T18:39:26.941Z,18.30
2022-09-07T18:49:27.727Z,18.50
2022-09-07T18:54:26.634Z,20.50
2022-09-07T18:59:26.583Z,18.70
2022-09-07T19:05:49.613Z,19.70
2022-09-07T19:09:27.425Z,22.00
2022-09-07T19:14:26.358Z,19.90
2022-09-07T19:19:26.400Z,17.70
2022-09-07T19:24:26.229Z,18.00
2022-09-07T19:29:26.180Z,19.80
2022-09-07T19:34:26.133Z,15.10
2022-09-07T19:39:26.262Z,17.20
2022-09-07T19:44:25.961Z,21.10
2022-09-07T19:49:25.902Z,22.10
2022-09-07T19:54:25.841Z,20.90
2022-09-07T19:59:25.774Z,21.90
2022-09-07T20:04:25.734Z,23.10
2022-09-07T20:09:25.646Z,24.30
2022-09-07T20:14:25.591Z,19.70
2022-09-07T20:19:25.525Z,21.00
2022-09-07T20:24:25.436Z,24.80
2022-09-07T20:29:28.284Z,26.60
2022-09-07T20:34:25.307Z,25.80
2022-09-07T20:39:25.261Z,24.40
2022-09-07T20:44:25.349Z,22.20
2022-09-07T20:49:25.120Z,26.30
2022-09-07T20:54:25.046Z,26.70
2022-09-07T20:59:24.981Z,28.40
2022-09-07T21:04:24.922Z,29.80
2022-09-07T21:09:24.881Z,29.30
2022-09-07T21:14:24.799Z,29.60
2022-09-07T21:19:24.730Z,31.20
2022-09-07T21:24:24.664Z,25.10
2022-09-07T21:29:24.603Z,26.60
2022-09-07T21:34:24.523Z,29.20
2022-09-07T21:39:24.455Z,32.50
2022-09-07T21:44:24.385Z,33.10
2022-09-07T21:49:24.501Z,31.90
2022-09-07T21:54:24.256Z,28.00
2022-09-07T21:59:24.207Z,31.60
2022-09-07T22:04:24.139Z,30.30
2022-09-07T22:09:24.076Z,35.50
2022-09-07T22:14:24.009Z,35.20
2022-09-07T22:19:23.954Z,38.40
2022-09-07T22:24:23.869Z,32.40
2022-09-07T22:29:23.793Z,32.50
2022-09-07T22:34:23.722Z,36.80
2022-09-07T22:39:23.653Z,27.40
2022-09-07T22:44:23.585Z,32.00
2022-09-07T22:49:23.522Z,33.80
2022-09-07T22:54:23.484Z,33.60
2022-09-07T22:59:23.403Z,31.40
2022-09-07T23:04:24.772Z,30.20
2022-09-07T23:09:23.269Z,29.80
2022-09-07T23:14:23.195Z,30.10
2022-09-07T23:19:23.135Z,30.30
2022-09-07T23:24:23.086Z,35.70
2022-09-07T23:29:23.015Z,36.00
2022-09-07T23:34:22.928Z,29.80
2022-09-07T23:39:22.857Z,35.30
2022-09-07T23:44:22.786Z,35.00
2022-09-07T23:49:22.729Z,34.00
2022-09-07T23:54:22.656Z,34.10
2022-09-07T23:59:22.699Z,36.50
